createdAt,value
2019-05-03T00:02:43.237Z,10.20
2019-05-03T00:05:30.049Z,9.50
2019-05-03T00:08:02.485Z,9.60
2019-05-03T00:10:31.802Z,9.67
2019-05-03T00:13:01.938Z,8.67
2019-05-03T00:15:52.747Z,9.47
2019-05-03T00:18:22.133Z,9.07
2019-05-03T00:20:52.583Z,8.80
2019-05-03T00:23:22.866Z,8.57
2019-05-03T00:25:52.358Z,8.30
2019-05-03T00:28:21.676Z,8.30
2019-05-03T00:30:51.812Z,8.73
2019-05-03T00:33:22.422Z,8.77
2019-05-03T00:36:11.679Z,7.93
2019-05-03T00:38:41.944Z,7.90
2019-05-03T00:41:12.200Z,7.77
2019-05-03T00:43:42.405Z,7.07
2019-05-03T00:46:12.623Z,7.20
2019-05-03T00:48:42.883Z,7.60
2019-05-03T00:51:11.821Z,6.57
2019-05-03T00:53:42.303Z,6.90
2019-05-03T00:56:12.258Z,7.03
2019-05-03T00:58:56.377Z,6.70
2019-05-03T01:01:24.970Z,6.40
2019-05-03T01:03:54.020Z,7.13
2019-05-03T01:06:22.637Z,6.63
2019-05-03T01:08:52.303Z,6.13
2019-05-03T01:11:22.295Z,6.50
2019-05-03T01:13:54.327Z,6.83
2019-05-03T01:16:23.480Z,7.40
2019-05-03T01:18:52.348Z,6.27
2019-05-03T01:21:22.663Z,5.50
2019-05-03T01:23:52.569Z,5.60
2019-05-03T01:26:22.711Z,5.70
2019-05-03T01:28:52.266Z,5.60
2019-05-03T01:31:22.540Z,6.87
2019-05-03T01:33:51.653Z,5.53
2019-05-03T01:36:20.289Z,6.30
2019-05-03T01:38:50.040Z,5.90
2019-05-03T01:41:18.545Z,6.30
2019-05-03T01:43:47.353Z,6.13
2019-05-03T01:46:15.783Z,6.00
2019-05-03T01:49:04.138Z,5.80
2019-05-03T01:51:52.540Z,5.50
2019-05-03T01:54:22.760Z,5.77
2019-05-03T01:56:58.807Z,5.83
2019-05-03T01:59:22.667Z,5.93
2019-05-03T02:02:20.406Z,5.13
2019-05-03T02:04:55.235Z,4.77
2019-05-03T02:07:23.797Z,4.50
2019-05-03T02:09:52.413Z,4.93
2019-05-03T02:12:22.176Z,5.53
2019-05-03T02:14:51.665Z,6.60
2019-05-03T02:17:22.551Z,5.80
2019-05-03T02:19:52.593Z,5.63
2019-05-03T02:22:22.597Z,5.77
2019-05-03T02:24:52.630Z,6.03
2019-05-03T02:27:21.998Z,5.47
2019-05-03T02:29:50.186Z,6.10
2019-05-03T02:32:18.826Z,6.30
2019-05-03T02:34:47.370Z,5.10
2019-05-03T02:37:16.143Z,6.50
2019-05-03T02:39:44.658Z,6.23
2019-05-03T02:42:15.896Z,6.87
2019-05-03T02:44:45.921Z,6.30
2019-05-03T02:47:39.149Z,7.07
2019-05-03T02:50:11.313Z,7.80
2019-05-03T02:52:39.898Z,8.83
2019-05-03T02:55:10.229Z,8.10
2019-05-03T02:57:38.760Z,10.27
2019-05-03T03:00:08.473Z,9.77
2019-05-03T03:02:40.881Z,9.63
2019-05-03T03:05:09.906Z,10.97
2019-05-03T03:07:39.169Z,10.20
2019-05-03T03:10:08.149Z,10.37
2019-05-03T03:12:38.602Z,9.93
2019-05-03T03:15:07.170Z,11.45
2019-05-03T03:17:36.363Z,11.10
2019-05-03T03:20:05.664Z,12.07
2019-05-03T03:22:36.364Z,12.63
2019-05-03T03:25:08.791Z,13.43
2019-05-03T03:27:39.495Z,14.33
2019-05-03T03:30:28.917Z,14.70
2019-05-03T03:33:09.198Z,13.93
2019-05-03T03:35:39.037Z,14.57
2019-05-03T03:38:07.858Z,14.83
2019-05-03T03:40:38.050Z,15.27
2019-05-03T03:43:08.606Z,13.13
2019-05-03T03:45:38.370Z,14.90
2019-05-03T03:48:07.295Z,14.63
2019-05-03T03:50:36.270Z,14.17
2019-05-03T03:53:06.676Z,13.83
2019-05-03T03:55:35.500Z,17.87
2019-05-03T03:58:06.516Z,34.37
2019-05-03T04:00:36.184Z,30.13
2019-05-03T04:03:05.919Z,26.87
2019-05-03T04:05:35.780Z,26.57
2019-05-03T04:08:05.789Z,24.73
2019-05-03T04:10:35.220Z,22.33
2019-05-03T04:13:05.797Z,21.50
2019-05-03T04:15:45.838Z,21.93
2019-05-03T04:18:36.107Z,19.10
2019-05-03T04:21:05.526Z,15.60
2019-05-03T04:23:35.849Z,16.43
2019-05-03T04:26:07.103Z,16.07
2019-05-03T04:28:36.146Z,15.97
2019-05-03T04:31:06.267Z,15.20
2019-05-03T04:33:35.874Z,15.77
2019-05-03T04:36:05.461Z,15.20
2019-05-03T04:38:35.451Z,15.73
2019-05-03T04:41:05.854Z,15.27
2019-05-03T04:43:35.757Z,15.65
2019-05-03T04:46:10.862Z,15.30
2019-05-03T04:48:39.207Z,14.83
2019-05-03T04:51:07.530Z,14.93
2019-05-03T04:53:37.731Z,13.40
2019-05-03T04:56:06.359Z,14.13
2019-05-03T04:58:36.451Z,13.27
2019-05-03T05:01:06.199Z,13.60
2019-05-03T05:03:36.113Z,13.97
2019-05-03T05:06:06.574Z,13.80
2019-05-03T05:08:37.966Z,12.83
2019-05-03T05:11:10.025Z,12.03
2019-05-03T05:13:37.436Z,11.97
2019-05-03T05:16:06.210Z,11.47
2019-05-03T05:18:39.525Z,12.07
2019-05-03T05:21:15.078Z,10.70
2019-05-03T05:24:00.880Z,11.67
2019-05-03T05:26:41.773Z,8.83
2019-05-03T05:29:12.110Z,7.70
2019-05-03T05:31:40.993Z,5.50
2019-05-03T05:34:09.983Z,5.50
2019-05-03T05:36:38.316Z,4.30
2019-05-03T05:39:07.477Z,4.77
2019-05-03T05:41:36.021Z,4.80
2019-05-03T05:44:05.385Z,5.33
2019-05-03T05:46:42.013Z,4.20
2019-05-03T05:49:14.572Z,5.53
2019-05-03T05:51:44.485Z,4.43
2019-05-03T05:54:14.404Z,3.67
2019-05-03T05:57:00.253Z,4.53
2019-05-03T05:59:55.635Z,3.20
2019-05-03T06:02:25.389Z,3.30
2019-05-03T06:04:54.943Z,3.30
2019-05-03T06:07:44.332Z,3.17
2019-05-03T06:10:19.246Z,3.63
2019-05-03T06:13:15.081Z,3.37
2019-05-03T06:15:54.830Z,3.80
2019-05-03T06:18:30.662Z,3.80
2019-05-03T06:21:15.766Z,4.20
2019-05-03T06:23:52.899Z,3.80
2019-05-03T06:26:58.776Z,3.17
2019-05-03T06:29:27.713Z,3.43
2019-05-03T06:32:30.873Z,3.17
2019-05-03T06:35:00.409Z,3.60
2019-05-03T06:37:33.154Z,2.83
2019-05-03T06:40:05.812Z,4.57
2019-05-03T06:42:32.980Z,3.50
2019-05-03T06:45:09.625Z,3.50
2019-05-03T06:47:32.195Z,3.60
2019-05-03T06:50:00.521Z,2.83
2019-05-03T06:52:29.394Z,3.47
2019-05-03T06:55:00.475Z,4.60
2019-05-03T06:57:28.780Z,3.23
2019-05-03T07:00:05.329Z,2.97
2019-05-03T07:02:59.605Z,2.93
2019-05-03T07:05:47.985Z,3.23
2019-05-03T07:08:34.543Z,4.27
2019-05-03T07:11:05.106Z,3.00
2019-05-03T07:13:34.536Z,2.67
2019-05-03T07:16:04.696Z,3.23
2019-05-03T07:18:35.015Z,2.67
2019-05-03T07:21:04.883Z,2.37
2019-05-03T07:23:34.993Z,3.30
2019-05-03T07:26:05.406Z,3.13
2019-05-03T07:28:45.915Z,3.00
2019-05-03T07:31:04.788Z,3.67
2019-05-03T07:33:34.685Z,3.63
2019-05-03T07:36:05.356Z,2.87
2019-05-03T07:38:35.012Z,2.53
2019-05-03T07:41:05.327Z,2.50
2019-05-03T07:43:35.882Z,2.60
2019-05-03T07:46:18.273Z,2.10
2019-05-03T07:48:47.258Z,2.43
2019-05-03T07:51:16.149Z,1.90
2019-05-03T07:53:45.098Z,1.97
2019-05-03T07:56:16.511Z,1.97
2019-05-03T07:59:00.054Z,2.10
2019-05-03T08:01:29.512Z,1.50
2019-05-03T08:03:58.420Z,1.80
2019-05-03T08:06:27.162Z,2.17
2019-05-03T08:08:55.933Z,2.07
2019-05-03T08:11:24.865Z,2.20
2019-05-03T08:13:54.966Z,1.63
2019-05-03T08:16:25.060Z,1.77
2019-05-03T08:18:55.909Z,1.40
2019-05-03T08:21:25.243Z,2.13
2019-05-03T08:23:55.727Z,1.53
2019-05-03T08:26:25.665Z,1.87
2019-05-03T08:28:54.705Z,2.03
2019-05-03T08:31:42.839Z,1.90
2019-05-03T08:34:31.196Z,1.70
2019-05-03T08:37:08.152Z,2.27
2019-05-03T08:39:36.764Z,2.30
2019-05-03T08:42:14.884Z,2.13
2019-05-03T08:44:45.247Z,2.10
2019-05-03T08:47:15.364Z,2.30
2019-05-03T08:49:44.995Z,2.07
2019-05-03T08:52:15.722Z,2.00
2019-05-03T08:54:44.874Z,2.30
2019-05-03T08:57:14.951Z,2.30
2019-05-03T08:59:44.598Z,2.37
2019-05-03T09:02:14.222Z,2.33
2019-05-03T09:04:45.928Z,2.13
2019-05-03T09:07:14.793Z,2.25
2019-05-03T09:10:18.222Z,2.40
2019-05-03T09:13:10.175Z,2.30
2019-05-03T09:15:39.297Z,2.20
2019-05-03T09:18:08.058Z,2.57
2019-05-03T09:20:36.529Z,2.00
2019-05-03T09:23:05.302Z,2.43
2019-05-03T09:25:35.711Z,1.97
2019-05-03T09:28:04.799Z,2.23
2019-05-03T09:30:35.535Z,3.10
2019-05-03T09:33:06.027Z,2.43
2019-05-03T09:35:35.991Z,2.53
2019-05-03T09:38:05.731Z,2.57
2019-05-03T09:40:35.777Z,1.70
2019-05-03T09:43:04.509Z,2.23
2019-05-03T09:45:35.292Z,2.23
2019-05-03T09:48:05.776Z,1.97
2019-05-03T09:50:35.934Z,2.23
2019-05-03T09:53:05.418Z,2.77
2019-05-03T09:55:37.242Z,1.97
2019-05-03T09:58:06.106Z,1.87
2019-05-03T10:00:34.529Z,1.80
2019-05-03T10:03:05.394Z,2.93
2019-05-03T10:05:35.082Z,5.07
2019-05-03T10:08:05.157Z,6.73
2019-05-03T10:10:52.426Z,11.97
2019-05-03T10:13:23.465Z,2.07
2019-05-03T10:15:52.197Z,1.60
2019-05-03T10:18:20.913Z,2.17
2019-05-03T10:20:49.569Z,2.57
2019-05-03T10:23:37.680Z,2.10
2019-05-03T10:26:06.335Z,5.97
2019-05-03T10:28:35.348Z,3.67
2019-05-03T10:31:07.451Z,2.17
2019-05-03T10:33:56.987Z,1.73
2019-05-03T10:36:25.982Z,14.97
2019-05-03T10:38:55.529Z,9.13
2019-05-03T10:41:25.735Z,2.27
2019-05-03T10:43:55.706Z,2.00
2019-05-03T10:46:25.349Z,1.60
2019-05-03T10:48:55.756Z,2.33
2019-05-03T10:51:26.972Z,1.90
2019-05-03T10:53:58.512Z,15.40
2019-05-03T10:56:37.586Z,1.50
2019-05-03T10:59:07.555Z,2.83
2019-05-03T11:02:08.148Z,3.40
2019-05-03T11:04:36.614Z,1.50
2019-05-03T11:07:05.591Z,5.90
2019-05-03T11:09:48.096Z,1.87
2019-05-03T11:12:06.874Z,1.60
2019-05-03T11:14:35.515Z,1.40
2019-05-03T11:17:05.706Z,1.50
2019-05-03T11:19:35.671Z,1.70
2019-05-03T11:22:05.459Z,1.83
2019-05-03T11:24:34.854Z,2.00
2019-05-03T11:27:07.285Z,1.77
2019-05-03T11:29:36.217Z,1.73
2019-05-03T11:32:20.786Z,1.50
2019-05-03T11:35:17.886Z,1.60
2019-05-03T11:37:51.180Z,1.90
2019-05-03T11:40:19.745Z,1.60
2019-05-03T11:42:48.619Z,1.63
2019-05-03T11:45:17.381Z,1.47
2019-05-03T11:47:45.991Z,1.40
2019-05-03T11:50:15.007Z,1.83
2019-05-03T11:52:49.795Z,1.60
2019-05-03T11:55:18.681Z,2.03
2019-05-03T11:57:46.955Z,1.60
2019-05-03T12:00:20.721Z,1.53
2019-05-03T12:02:58.570Z,1.47
2019-05-03T12:05:28.090Z,1.30
2019-05-03T12:07:56.608Z,2.27
2019-05-03T12:10:46.257Z,2.33
2019-05-03T12:13:21.014Z,1.50
2019-05-03T12:15:50.253Z,1.40
2019-05-03T12:18:18.959Z,2.20
2019-05-03T12:20:49.306Z,2.07
2019-05-03T12:23:18.705Z,1.40
2019-05-03T12:25:48.242Z,3.37
2019-05-03T12:28:16.843Z,1.67
2019-05-03T12:30:45.069Z,1.70
2019-05-03T12:33:15.378Z,1.60
2019-05-03T12:35:46.024Z,2.17
2019-05-03T12:38:16.497Z,1.55
2019-05-03T12:40:45.534Z,1.57
2019-05-03T12:43:14.988Z,1.30
2019-05-03T12:45:43.885Z,1.80
2019-05-03T12:48:12.638Z,1.42
2019-05-03T12:50:41.339Z,1.73
2019-05-03T12:53:09.721Z,1.33
2019-05-03T12:55:38.271Z,1.50
2019-05-03T12:58:07.030Z,1.42
2019-05-03T13:00:57.694Z,1.60
2019-05-03T13:03:39.172Z,1.60
2019-05-03T13:06:07.646Z,1.72
2019-05-03T13:08:38.377Z,1.42
2019-05-03T13:11:06.993Z,1.80
2019-05-03T13:13:36.075Z,1.50
2019-05-03T13:16:05.942Z,1.37
2019-05-03T13:18:35.315Z,1.70
2019-05-03T13:21:05.723Z,1.50
2019-05-03T13:23:35.379Z,1.42
2019-05-03T13:26:05.690Z,1.70
2019-05-03T13:28:34.334Z,1.30
2019-05-03T13:31:02.560Z,1.30
2019-05-03T13:33:30.861Z,1.50
2019-05-03T13:36:00.090Z,1.42
2019-05-03T13:38:28.367Z,2.10
2019-05-03T13:40:57.270Z,2.42
2019-05-03T13:43:25.945Z,1.42
2019-05-03T13:45:55.613Z,1.52
2019-05-03T13:48:26.283Z,1.70
2019-05-03T13:50:55.177Z,1.65
2019-05-03T13:53:25.450Z,1.57
2019-05-03T13:55:55.233Z,1.90
2019-05-03T13:58:26.207Z,1.90
2019-05-03T14:00:55.104Z,2.10
2019-05-03T14:03:23.597Z,1.60
2019-05-03T14:05:52.214Z,1.70
2019-05-03T14:08:21.039Z,1.40
2019-05-03T14:10:49.437Z,2.07
2019-05-03T14:13:18.767Z,2.00
2019-05-03T14:15:47.046Z,1.67
2019-05-03T14:18:15.640Z,1.73
2019-05-03T14:21:06.755Z,1.80
2019-05-03T14:23:57.535Z,1.83
2019-05-03T14:26:26.276Z,2.20
2019-05-03T14:28:54.979Z,1.90
2019-05-03T14:31:25.163Z,1.70
2019-05-03T14:33:55.882Z,1.63
2019-05-03T14:36:25.131Z,2.00
2019-05-03T14:38:58.156Z,1.73
2019-05-03T14:41:26.880Z,1.70
2019-05-03T14:43:55.892Z,1.70
2019-05-03T14:46:32.914Z,1.70
2019-05-03T14:48:55.588Z,1.90
2019-05-03T14:51:25.376Z,1.50
2019-05-03T14:53:56.923Z,2.00
2019-05-03T14:56:50.605Z,1.63
2019-05-03T14:59:41.735Z,1.53
2019-05-03T15:02:20.692Z,1.70
2019-05-03T15:04:49.122Z,2.30
2019-05-03T15:07:17.493Z,2.67
2019-05-03T15:09:45.979Z,1.57
2019-05-03T15:12:14.813Z,1.90
2019-05-03T15:14:45.135Z,1.40
2019-05-03T15:17:14.473Z,1.60
2019-05-03T15:19:45.225Z,1.63
2019-05-03T15:22:14.663Z,1.73
2019-05-03T15:24:45.083Z,1.87
2019-05-03T15:27:13.905Z,1.77
2019-05-03T15:29:42.501Z,1.37
2019-05-03T15:32:11.527Z,1.70
2019-05-03T15:34:40.133Z,1.27
2019-05-03T15:37:09.217Z,1.50
2019-05-03T15:39:45.129Z,1.70
2019-05-03T15:42:14.666Z,1.70
2019-05-03T15:44:56.778Z,2.20
2019-05-03T15:47:30.070Z,1.80
2019-05-03T15:49:58.815Z,1.63
2019-05-03T15:52:27.118Z,1.70
2019-05-03T15:54:56.647Z,1.53
2019-05-03T15:57:26.413Z,1.30
2019-05-03T15:59:55.309Z,1.27
2019-05-03T16:02:24.701Z,1.60
2019-05-03T16:04:55.694Z,1.30
2019-05-03T16:07:25.047Z,1.80
2019-05-03T16:09:55.081Z,1.50
2019-05-03T16:12:23.411Z,2.03
2019-05-03T16:14:51.635Z,1.80
2019-05-03T16:17:21.153Z,2.83
2019-05-03T16:19:50.098Z,2.93
2019-05-03T16:22:18.481Z,1.60
2019-05-03T16:24:47.600Z,1.60
2019-05-03T16:27:38.526Z,2.30
2019-05-03T16:30:25.614Z,1.60
2019-05-03T16:32:54.968Z,1.50
2019-05-03T16:35:25.540Z,2.50
2019-05-03T16:37:54.692Z,2.40
2019-05-03T16:40:25.151Z,2.93
2019-05-03T16:42:53.921Z,2.40
2019-05-03T16:45:22.517Z,3.77
2019-05-03T16:47:51.365Z,3.40
2019-05-03T16:50:20.121Z,3.00
2019-05-03T16:52:48.678Z,2.60
2019-05-03T16:55:17.120Z,2.43
2019-05-03T16:57:45.398Z,2.63
2019-05-03T17:00:17.528Z,1.50
2019-05-03T17:02:44.365Z,1.50
2019-05-03T17:05:20.457Z,1.73
2019-05-03T17:08:11.877Z,1.70
2019-05-03T17:10:45.404Z,2.90
2019-05-03T17:13:14.799Z,2.60
2019-05-03T17:15:43.439Z,4.70
2019-05-03T17:18:12.457Z,2.07
2019-05-03T17:20:41.422Z,2.57
2019-05-03T17:23:10.249Z,3.40
2019-05-03T17:25:38.803Z,3.80
2019-05-03T17:28:07.489Z,3.30
2019-05-03T17:30:37.399Z,3.70
2019-05-03T17:33:06.386Z,3.50
2019-05-03T17:35:35.090Z,3.07
2019-05-03T17:38:05.313Z,3.33
2019-05-03T17:40:51.830Z,3.23
2019-05-03T17:43:27.873Z,2.77
2019-05-03T17:45:57.057Z,3.10
2019-05-03T17:48:25.528Z,3.67
2019-05-03T17:50:55.065Z,2.90
2019-05-03T17:53:54.585Z,3.10
2019-05-03T17:56:41.082Z,4.33
2019-05-03T17:59:21.275Z,5.67
2019-05-03T18:02:11.683Z,5.63
2019-05-03T18:04:59.978Z,4.93
2019-05-03T18:07:39.723Z,5.07
2019-05-03T18:10:09.026Z,5.37
2019-05-03T18:12:38.633Z,4.80
2019-05-03T18:15:07.778Z,4.60
2019-05-03T18:17:36.473Z,4.30
2019-05-03T18:20:05.065Z,4.57
2019-05-03T18:22:33.205Z,4.20
2019-05-03T18:25:02.006Z,3.83
2019-05-03T18:27:30.298Z,4.13
2019-05-03T18:29:58.761Z,3.63
2019-05-03T18:32:27.117Z,3.60
2019-05-03T18:34:55.885Z,3.80
2019-05-03T18:37:24.700Z,4.00
2019-05-03T18:39:54.674Z,4.50
2019-05-03T18:42:44.667Z,4.23
2019-05-03T18:45:31.639Z,4.20
2019-05-03T18:47:59.997Z,4.80
2019-05-03T18:50:28.526Z,4.43
2019-05-03T18:52:56.826Z,4.80
2019-05-03T18:55:25.341Z,4.47
2019-05-03T18:57:54.702Z,4.30
2019-05-03T19:00:24.661Z,3.77
2019-05-03T19:02:54.639Z,3.80
2019-05-03T19:05:24.966Z,4.00
2019-05-03T19:08:22.234Z,4.03
2019-05-03T19:10:55.194Z,4.20
2019-05-03T19:13:30.223Z,4.10
2019-05-03T19:15:59.722Z,3.80
2019-05-03T19:18:30.273Z,3.90
2019-05-03T19:20:59.008Z,3.63
2019-05-03T19:23:27.798Z,3.07
2019-05-03T19:25:56.530Z,3.47
2019-05-03T19:28:25.815Z,4.30
2019-05-03T19:30:54.958Z,3.20
2019-05-03T19:33:24.641Z,3.67
2019-05-03T19:35:54.991Z,4.10
2019-05-03T19:38:27.959Z,4.00
2019-05-03T19:40:56.492Z,3.70
2019-05-03T19:43:27.163Z,3.40
2019-05-03T19:45:56.585Z,3.43
2019-05-03T19:48:27.107Z,3.17
2019-05-03T19:50:58.169Z,3.10
2019-05-03T19:53:50.826Z,3.50
2019-05-03T19:56:22.084Z,3.30
2019-05-03T19:58:55.715Z,3.30
2019-05-03T20:01:52.033Z,3.37
2019-05-03T20:04:39.077Z,3.40
2019-05-03T20:07:28.096Z,3.87
2019-05-03T20:09:58.832Z,4.07
2019-05-03T20:12:27.809Z,5.00
2019-05-03T20:15:01.055Z,3.97
2019-05-03T20:17:31.281Z,3.77
2019-05-03T20:20:00.465Z,4.37
2019-05-03T20:22:32.031Z,4.10
2019-05-03T20:25:04.687Z,3.80
2019-05-03T20:27:35.320Z,3.70
2019-05-03T20:30:05.848Z,4.20
2019-05-03T20:32:35.713Z,3.20
2019-05-03T20:35:12.934Z,3.80
2019-05-03T20:37:34.878Z,4.43
2019-05-03T20:40:04.881Z,3.87
2019-05-03T20:42:54.427Z,3.90
2019-05-03T20:45:29.736Z,3.83
2019-05-03T20:47:59.687Z,3.47
2019-05-03T20:50:29.312Z,3.30
2019-05-03T20:52:57.605Z,4.07
2019-05-03T20:55:25.871Z,3.47
2019-05-03T20:57:54.939Z,2.90
2019-05-03T21:00:25.961Z,3.10
2019-05-03T21:02:57.149Z,3.43
2019-05-03T21:05:30.338Z,3.90
2019-05-03T21:07:55.045Z,3.63
2019-05-03T21:10:23.525Z,3.53
2019-05-03T21:12:51.818Z,3.67
2019-05-03T21:15:29.064Z,3.37
2019-05-03T21:18:06.014Z,3.73
2019-05-03T21:20:55.430Z,3.60
2019-05-03T21:23:25.106Z,3.33
2019-05-03T21:26:12.885Z,4.67
2019-05-03T21:28:37.300Z,4.13
2019-05-03T21:31:05.790Z,3.50
2019-05-03T21:33:35.486Z,3.10
2019-05-03T21:36:04.682Z,3.10
2019-05-03T21:38:35.193Z,3.63
2019-05-03T21:41:05.143Z,3.73
2019-05-03T21:43:34.790Z,3.90
2019-05-03T21:46:11.685Z,4.60
2019-05-03T21:48:59.228Z,4.47
2019-05-03T21:51:27.545Z,4.40
2019-05-03T21:53:57.761Z,4.33
2019-05-03T21:56:26.077Z,5.03
2019-05-03T21:58:55.272Z,5.17
2019-05-03T22:01:25.930Z,7.67
2019-05-03T22:03:54.490Z,9.80
2019-05-03T22:06:24.707Z,9.63
2019-05-03T22:08:55.252Z,9.17
2019-05-03T22:11:25.165Z,9.20
2019-05-03T22:13:57.163Z,9.07
2019-05-03T22:16:49.995Z,9.13
2019-05-03T22:19:19.550Z,9.63
2019-05-03T22:22:14.925Z,9.63
2019-05-03T22:24:47.305Z,9.17
2019-05-03T22:27:16.705Z,8.57
2019-05-03T22:29:45.720Z,7.63
2019-05-03T22:32:15.582Z,6.67
2019-05-03T22:34:44.250Z,7.23
2019-05-03T22:37:14.241Z,6.30
2019-05-03T22:39:42.534Z,6.83
2019-05-03T22:42:10.652Z,7.00
2019-05-03T22:44:38.966Z,6.80
2019-05-03T22:47:07.109Z,7.85
2019-05-03T22:49:37.310Z,7.43
2019-05-03T22:52:05.698Z,8.07
2019-05-03T22:54:34.641Z,8.60
2019-05-03T22:57:04.848Z,8.97
2019-05-03T22:59:34.459Z,9.00
2019-05-03T23:02:03.489Z,8.90
2019-05-03T23:04:32.239Z,9.07
2019-05-03T23:07:00.546Z,10.20
2019-05-03T23:09:28.661Z,8.77
2019-05-03T23:11:57.263Z,8.60
2019-05-03T23:14:25.797Z,9.50
2019-05-03T23:16:55.062Z,9.33
2019-05-03T23:19:24.863Z,9.77
2019-05-03T23:22:15.466Z,9.03
2019-05-03T23:24:44.301Z,8.70
2019-05-03T23:27:14.427Z,9.43
2019-05-03T23:29:45.240Z,8.83
2019-05-03T23:32:15.180Z,10.00
2019-05-03T23:34:43.793Z,9.80
2019-05-03T23:37:12.444Z,9.73
2019-05-03T23:39:41.125Z,9.60
2019-05-03T23:42:09.827Z,9.60
2019-05-03T23:44:38.559Z,9.43
2019-05-03T23:47:14.640Z,9.70
2019-05-03T23:49:44.512Z,9.63
2019-05-03T23:52:31.339Z,9.87
2019-05-03T23:55:00.685Z,11.18
2019-05-03T23:57:29.328Z,9.33
2019-05-03T23:59:58.153Z,10.13
